createdAt,value
2022-08-14T00:00:30.585Z,59.90
2022-08-14T00:05:31.588Z,59.80
2022-08-14T00:10:52.178Z,59.70
2022-08-14T00:13:18.329Z,60.20
2022-08-14T00:15:49.659Z,60.10
2022-08-14T00:19:05.439Z,60.20
2022-08-14T00:21:11.780Z,60.20
2022-08-14T00:23:40.699Z,59.80
2022-08-14T00:34:36.684Z,60.40
2022-08-14T00:37:00.409Z,60.50
2022-08-14T00:39:30.445Z,60.70
2022-08-14T00:44:32.453Z,60.90
2022-08-14T00:47:02.531Z,61.20
2022-08-14T00:49:38.341Z,61.60
2022-08-14T00:52:14.103Z,61.90
2022-08-14T00:54:47.400Z,62.30
2022-08-14T00:57:15.709Z,62.60
2022-08-14T00:59:45.622Z,63.00
2022-08-14T01:02:17.930Z,63.40
2022-08-14T01:07:27.335Z,64.20
2022-08-14T01:09:57.345Z,64.60
2022-08-14T01:12:30.464Z,64.80
2022-08-14T01:15:02.214Z,65.10
2022-08-14T01:17:49.574Z,65.20
2022-08-14T01:20:39.941Z,65.60
2022-08-14T01:23:16.601Z,65.80
2022-08-14T01:25:52.077Z,66.00
2022-08-14T01:28:47.232Z,66.20
2022-08-14T01:31:12.553Z,66.50
2022-08-14T01:35:15.854Z,66.60
2022-08-14T01:39:12.839Z,66.90
2022-08-14T01:41:44.421Z,67.10
2022-08-14T01:44:33.210Z,67.50
2022-08-14T01:47:11.825Z,67.80
2022-08-14T01:52:34.391Z,68.10
2022-08-14T01:55:19.057Z,68.50
2022-08-14T01:58:28.950Z,69.10
2022-08-14T02:00:59.214Z,69.10
2022-08-14T02:03:30.916Z,69.30
2022-08-14T02:11:26.384Z,70.50
2022-08-14T02:13:58.999Z,70.90
2022-08-14T02:16:30.769Z,71.20
2022-08-14T02:19:02.626Z,71.70
2022-08-14T02:21:43.673Z,72.00
2022-08-14T02:24:39.131Z,72.10
2022-08-14T02:28:22.351Z,72.20
2022-08-14T02:30:01.255Z,72.50
2022-08-14T02:32:37.310Z,72.70
2022-08-14T02:37:49.130Z,73.20
2022-08-14T02:40:18.842Z,73.70
2022-08-14T02:45:38.712Z,74.50
2022-08-14T02:49:02.561Z,74.80
2022-08-14T02:51:02.684Z,75.50
2022-08-14T02:53:31.604Z,75.60
2022-08-14T02:56:30.076Z,75.90
2022-08-14T02:58:55.757Z,76.30
2022-08-14T03:01:31.336Z,76.80
2022-08-14T03:04:12.708Z,77.50
2022-08-14T03:07:06.149Z,77.90
2022-08-14T03:09:41.674Z,78.40
2022-08-14T03:15:16.075Z,79.00
2022-08-14T03:17:57.636Z,79.60
2022-08-14T03:20:29.365Z,80.10
2022-08-14T03:23:00.077Z,80.50
2022-08-14T03:25:34.077Z,81.00
2022-08-14T03:28:07.261Z,81.50
2022-08-14T03:30:39.323Z,82.30
2022-08-14T03:33:10.858Z,82.60
2022-08-14T03:35:59.946Z,83.20
2022-08-14T03:39:14.271Z,83.80
2022-08-14T03:41:23.306Z,84.60
2022-08-14T03:43:57.794Z,85.00
2022-08-14T03:46:51.938Z,85.20
2022-08-14T03:49:28.568Z,85.80
2022-08-14T03:52:00.688Z,86.30
2022-08-14T03:54:29.842Z,86.80
2022-08-14T03:57:02.806Z,87.40
2022-08-14T03:59:32.283Z,88.10
2022-08-14T04:02:04.620Z,89.10
2022-08-14T04:07:22.561Z,90.20
2022-08-14T04:09:50.854Z,90.60
2022-08-14T04:12:26.629Z,90.70
2022-08-14T04:17:26.248Z,90.90
2022-08-14T04:19:57.613Z,91.20
2022-08-14T04:22:25.713Z,91.60
2022-08-14T04:24:54.437Z,91.80
2022-08-14T04:35:11.146Z,92.70
2022-08-14T04:37:57.094Z,92.90
2022-08-14T04:40:42.919Z,93.10
2022-08-14T04:43:38.789Z,93.10
2022-08-14T04:46:10.625Z,93.20
2022-08-14T04:51:37.542Z,94.00
2022-08-14T04:54:18.386Z,94.30
2022-08-14T04:56:46.594Z,94.60
2022-08-14T05:01:47.851Z,94.80
2022-08-14T05:04:20.298Z,95.00
2022-08-14T05:06:53.450Z,95.20
2022-08-14T05:09:23.588Z,95.40
2022-08-14T05:14:43.428Z,95.70
2022-08-14T05:17:11.588Z,95.70
2022-08-14T05:22:30.099Z,96.20
2022-08-14T05:32:29.988Z,97.00
2022-08-14T05:34:59.440Z,97.20
2022-08-14T05:37:31.583Z,97.30
2022-08-14T05:40:02.782Z,97.40
2022-08-14T05:50:17.225Z,98.00
2022-08-14T05:55:22.008Z,98.30
2022-08-14T05:58:22.130Z,98.50
2022-08-14T06:01:02.312Z,98.60
2022-08-14T06:03:30.681Z,98.70
2022-08-14T06:05:59.017Z,98.90
2022-08-14T06:08:41.430Z,98.80
2022-08-14T06:11:20.090Z,99.00
2022-08-14T06:13:52.015Z,98.90
2022-08-14T06:16:20.248Z,99.00
2022-08-14T06:18:52.443Z,98.80
2022-08-14T06:21:22.594Z,98.80
2022-08-14T06:23:53.310Z,98.70
2022-08-14T06:26:22.580Z,98.70
2022-08-14T06:28:59.926Z,98.70
2022-08-14T06:31:28.637Z,99.00
2022-08-14T06:35:02.635Z,98.80
2022-08-14T06:36:45.682Z,98.80
2022-08-14T06:39:17.296Z,99.20
2022-08-14T06:54:46.766Z,99.50
2022-08-14T07:01:11.936Z,98.20
2022-08-14T07:03:58.135Z,98.80
2022-08-14T07:09:19.859Z,95.10
2022-08-14T07:11:53.713Z,95.20
2022-08-14T07:14:22.046Z,77.80
2022-08-14T07:21:50.286Z,57.70
2022-08-14T07:24:26.491Z,57.90
2022-08-14T07:27:00.940Z,53.80
2022-08-14T07:29:29.394Z,52.20
2022-08-14T07:31:58.485Z,49.80
2022-08-14T07:34:40.556Z,50.10
2022-08-14T07:37:10.001Z,50.50
2022-08-14T07:39:38.584Z,51.20
2022-08-14T07:44:46.551Z,50.30
2022-08-14T07:47:18.913Z,49.40
2022-08-14T07:50:00.245Z,46.10
2022-08-14T07:52:31.941Z,46.00
2022-08-14T07:55:05.209Z,45.70
2022-08-14T08:00:29.987Z,43.70
2022-08-14T08:03:00.741Z,44.60
2022-08-14T08:05:29.112Z,45.50
2022-08-14T08:07:58.413Z,45.50
2022-08-14T08:11:01.274Z,45.30
2022-08-14T08:13:29.227Z,45.30
2022-08-14T08:15:59.142Z,45.60
2022-08-14T08:18:31.121Z,45.90
2022-08-14T08:21:00.242Z,47.60
2022-08-14T08:23:39.852Z,48.40
2022-08-14T08:28:44.542Z,48.50
2022-08-14T08:31:13.932Z,48.30
2022-08-14T08:36:18.650Z,51.80
2022-08-14T08:39:18.701Z,52.20
2022-08-14T08:41:49.383Z,51.10
2022-08-14T08:44:31.602Z,50.60
2022-08-14T08:47:06.174Z,51.00
2022-08-14T08:49:48.363Z,51.60
2022-08-14T08:52:24.684Z,52.30
2022-08-14T08:54:57.367Z,52.90
2022-08-14T08:58:24.918Z,53.30
2022-08-14T09:00:58.654Z,52.60
2022-08-14T09:03:29.340Z,50.90
2022-08-14T09:06:03.672Z,51.30
2022-08-14T09:08:34.201Z,50.60
2022-08-14T09:11:20.888Z,49.00
2022-08-14T09:13:51.700Z,48.90
2022-08-14T09:16:25.815Z,49.60
2022-08-14T09:18:55.948Z,48.40
2022-08-14T09:21:31.782Z,48.30
2022-08-14T09:26:49.921Z,47.50
2022-08-14T09:29:23.214Z,45.80
2022-08-14T09:31:57.803Z,46.10
2022-08-14T09:34:50.902Z,47.00
2022-08-14T09:37:39.143Z,47.80
2022-08-14T09:40:20.823Z,48.20
2022-08-14T09:42:58.940Z,47.50
2022-08-14T09:45:40.194Z,47.10
2022-08-14T09:48:30.253Z,45.40
2022-08-14T09:54:18.290Z,46.20
2022-08-14T09:56:45.775Z,45.60
2022-08-14T09:59:16.659Z,45.00
2022-08-14T10:01:52.700Z,45.50
2022-08-14T10:04:34.711Z,46.50
2022-08-14T10:09:35.140Z,44.20
2022-08-14T10:12:13.339Z,43.40
2022-08-14T10:17:27.561Z,42.80
2022-08-14T10:20:02.862Z,43.30
2022-08-14T10:23:13.697Z,43.70
2022-08-14T10:25:22.614Z,44.30
2022-08-14T10:28:01.665Z,42.50
2022-08-14T10:30:37.848Z,41.60
2022-08-14T10:33:07.078Z,42.20
2022-08-14T10:35:48.130Z,42.10
2022-08-14T10:38:27.839Z,41.20
2022-08-14T10:40:59.403Z,41.90
2022-08-14T10:43:31.762Z,42.10
2022-08-14T10:46:21.852Z,42.70
2022-08-14T10:49:04.402Z,40.20
2022-08-14T11:00:30.036Z,41.60
2022-08-14T11:03:07.958Z,37.00
2022-08-14T11:05:43.649Z,37.70
2022-08-14T11:08:15.545Z,38.50
2022-08-14T11:10:49.180Z,38.30
2022-08-14T11:13:24.014Z,37.60
2022-08-14T11:15:56.010Z,37.60
2022-08-14T11:18:30.542Z,38.80
2022-08-14T11:21:06.824Z,35.70
2022-08-14T11:23:41.057Z,37.00
2022-08-14T11:26:14.152Z,37.80
2022-08-14T11:28:49.983Z,37.90
2022-08-14T11:31:24.173Z,37.10
2022-08-14T11:33:57.584Z,37.20
2022-08-14T11:37:02.467Z,36.40
2022-08-14T11:39:35.030Z,37.10
2022-08-14T11:42:55.491Z,37.00
2022-08-14T11:45:00.048Z,37.00
2022-08-14T11:47:35.427Z,38.40
2022-08-14T11:50:33.794Z,37.60
2022-08-14T11:53:05.875Z,37.80
2022-08-14T11:55:39.359Z,38.70
2022-08-14T11:58:34.798Z,39.10
2022-08-14T12:01:11.346Z,38.70
2022-08-14T12:06:29.290Z,38.60
2022-08-14T12:09:13.918Z,38.80
2022-08-14T12:11:47.763Z,39.00
2022-08-14T12:14:29.855Z,39.30
2022-08-14T12:17:05.210Z,39.90
2022-08-14T12:19:56.512Z,39.70
2022-08-14T12:22:52.664Z,38.90
2022-08-14T12:25:25.273Z,39.30
2022-08-14T12:27:59.158Z,39.90
2022-08-14T12:30:39.498Z,39.60
2022-08-14T12:33:25.680Z,39.90
2022-08-14T12:35:58.139Z,40.40
2022-08-14T12:38:36.000Z,40.60
2022-08-14T12:41:06.489Z,40.70
2022-08-14T12:43:48.206Z,41.00
2022-08-14T12:46:28.401Z,40.50
2022-08-14T12:48:59.180Z,42.20
2022-08-14T12:51:31.725Z,41.10
2022-08-14T12:54:01.543Z,40.00
2022-08-14T12:56:33.817Z,40.60
2022-08-14T12:59:05.056Z,40.40
2022-08-14T13:01:59.819Z,40.80
2022-08-14T13:04:23.743Z,40.70
2022-08-14T13:06:53.166Z,41.60
2022-08-14T13:09:23.125Z,41.20
2022-08-14T13:11:59.275Z,41.10
2022-08-14T13:14:45.792Z,40.50
2022-08-14T13:17:14.563Z,40.50
2022-08-14T13:19:45.700Z,40.70
2022-08-14T13:22:28.782Z,40.40
2022-08-14T13:25:01.306Z,39.30
2022-08-14T13:27:39.255Z,40.50
2022-08-14T13:30:21.308Z,40.50
2022-08-14T13:32:54.528Z,40.00
2022-08-14T13:35:26.872Z,39.40
2022-08-14T13:37:55.642Z,39.40
2022-08-14T13:40:26.392Z,39.90
2022-08-14T13:42:56.735Z,40.10
2022-08-14T13:45:33.963Z,40.20
2022-08-14T13:48:32.569Z,40.70
2022-08-14T13:51:10.806Z,40.30
2022-08-14T13:54:06.902Z,39.90
2022-08-14T13:56:42.354Z,39.90
2022-08-14T13:59:12.346Z,39.50
2022-08-14T14:01:52.182Z,39.40
2022-08-14T14:04:20.470Z,40.60
2022-08-14T14:06:50.802Z,40.00
2022-08-14T14:09:32.215Z,39.70
2022-08-14T14:12:04.032Z,40.00
2022-08-14T14:14:51.488Z,40.10
2022-08-14T14:17:25.026Z,39.90
2022-08-14T14:19:59.145Z,39.80
2022-08-14T14:22:36.081Z,40.10
2022-08-14T14:25:21.980Z,40.10
2022-08-14T14:27:53.542Z,40.40
2022-08-14T14:30:52.609Z,40.70
2022-08-14T14:33:43.978Z,41.40
2022-08-14T14:36:05.261Z,41.40
2022-08-14T14:38:40.918Z,41.30
2022-08-14T14:41:11.034Z,41.30
2022-08-14T14:43:45.131Z,41.40
2022-08-14T14:46:16.316Z,41.00
2022-08-14T14:48:54.606Z,40.30
2022-08-14T14:51:24.356Z,40.40
2022-08-14T14:53:54.228Z,40.60
2022-08-14T14:56:48.128Z,39.90
2022-08-14T14:59:13.988Z,40.20
2022-08-14T15:01:50.609Z,40.40
2022-08-14T15:04:21.331Z,40.00
2022-08-14T15:06:50.297Z,40.60
2022-08-14T15:09:23.711Z,40.20
2022-08-14T15:11:52.302Z,40.50
2022-08-14T15:14:55.818Z,40.90
2022-08-14T15:17:12.219Z,41.20
2022-08-14T15:19:56.727Z,41.30
2022-08-14T15:22:30.896Z,41.40
2022-08-14T15:25:00.101Z,42.30
2022-08-14T15:27:32.222Z,41.10
2022-08-14T15:30:02.008Z,41.00
2022-08-14T15:32:33.123Z,41.60
2022-08-14T15:35:03.402Z,40.50
2022-08-14T15:37:42.438Z,40.40
2022-08-14T15:40:22.084Z,41.60
2022-08-14T15:42:52.042Z,41.50
2022-08-14T15:45:21.646Z,41.90
2022-08-14T15:47:52.532Z,41.70
2022-08-14T15:50:24.009Z,41.60
2022-08-14T15:52:56.868Z,42.40
2022-08-14T15:55:25.661Z,41.50
2022-08-14T15:58:08.147Z,41.80
2022-08-14T16:01:08.746Z,41.50
2022-08-14T16:03:40.972Z,41.10
2022-08-14T16:06:17.946Z,40.70
2022-08-14T16:08:57.621Z,40.90
2022-08-14T16:11:32.790Z,41.20
2022-08-14T16:14:12.480Z,41.20
2022-08-14T16:40:11.406Z,41.90
2022-08-14T16:43:04.014Z,41.80
2022-08-14T16:45:33.625Z,41.90
2022-08-14T16:48:55.045Z,42.20
2022-08-14T16:51:00.857Z,42.60
2022-08-14T17:00:51.279Z,43.40
2022-08-14T17:09:29.235Z,43.60
2022-08-14T17:12:07.509Z,43.80
2022-08-14T17:15:15.030Z,43.40
2022-08-14T17:17:49.848Z,43.90
2022-08-14T17:20:54.076Z,43.30
2022-08-14T17:23:16.243Z,43.90
2022-08-14T17:25:51.465Z,43.20
2022-08-14T17:28:52.583Z,43.10
2022-08-14T17:31:12.259Z,43.40
2022-08-14T17:33:44.275Z,43.90
2022-08-14T17:36:21.512Z,43.90
2022-08-14T17:39:13.456Z,44.20
2022-08-14T17:42:01.738Z,45.00
2022-08-14T17:44:45.180Z,44.80
2022-08-14T17:47:18.220Z,44.90
2022-08-14T17:49:51.971Z,44.80
2022-08-14T17:52:34.922Z,44.40
2022-08-14T17:55:07.443Z,45.20
2022-08-14T18:02:00.195Z,44.60
2022-08-14T18:04:28.951Z,49.60
2022-08-14T18:07:16.532Z,47.30
2022-08-14T18:09:59.083Z,46.70
2022-08-14T18:12:36.619Z,47.00
2022-08-14T18:15:16.503Z,47.30
2022-08-14T18:17:52.599Z,48.40
2022-08-14T18:21:41.217Z,49.70
2022-08-14T18:23:12.856Z,50.00
2022-08-14T18:25:49.808Z,49.90
2022-08-14T18:28:51.567Z,50.40
2022-08-14T18:31:42.119Z,49.40
2022-08-14T18:34:30.869Z,50.00
2022-08-14T18:37:17.619Z,50.20
2022-08-14T18:40:03.472Z,51.20
2022-08-14T18:42:47.598Z,50.50
2022-08-14T18:45:31.509Z,50.90
2022-08-14T18:48:51.701Z,51.80
2022-08-14T18:51:45.228Z,51.20
2022-08-14T18:54:33.110Z,50.80
2022-08-14T18:57:05.623Z,51.00
2022-08-14T19:00:23.995Z,51.70
2022-08-14T19:03:01.846Z,49.50
2022-08-14T19:06:02.544Z,52.00
2022-08-14T19:08:39.001Z,51.60
2022-08-14T19:11:54.981Z,52.80
2022-08-14T19:14:48.721Z,52.70
2022-08-14T19:17:42.882Z,53.10
2022-08-14T19:20:47.925Z,53.20
2022-08-14T19:23:22.685Z,52.50
2022-08-14T19:26:02.154Z,53.20
2022-08-14T19:28:51.255Z,52.70
2022-08-14T19:31:46.532Z,52.80
2022-08-14T19:34:48.268Z,53.20
2022-08-14T19:37:57.095Z,53.50
2022-08-14T19:40:34.538Z,52.90
2022-08-14T19:43:06.642Z,53.40
2022-08-14T19:45:35.810Z,52.30
2022-08-14T19:48:15.614Z,52.20
2022-08-14T19:50:46.775Z,52.20
2022-08-14T19:53:17.279Z,53.30
2022-08-14T19:56:05.887Z,53.20
2022-08-14T19:58:54.993Z,53.90
2022-08-14T20:01:38.132Z,53.90
2022-08-14T20:04:45.159Z,55.90
2022-08-14T20:07:00.333Z,54.60
2022-08-14T20:11:04.938Z,55.10
2022-08-14T20:12:28.923Z,54.70
2022-08-14T20:15:09.139Z,54.20
2022-08-14T20:17:40.224Z,53.90
2022-08-14T20:20:20.895Z,53.50
2022-08-14T20:23:11.368Z,53.70
2022-08-14T20:25:45.403Z,53.80
2022-08-14T20:28:32.219Z,53.70
2022-08-14T20:31:15.704Z,53.70
2022-08-14T20:34:24.819Z,53.60
2022-08-14T20:37:09.795Z,53.60
2022-08-14T20:39:44.999Z,53.80
2022-08-14T20:42:34.390Z,53.80
2022-08-14T20:45:23.821Z,54.00
2022-08-14T20:54:02.864Z,54.40
2022-08-14T20:56:35.357Z,54.50
2022-08-14T20:59:19.189Z,54.30
2022-08-14T21:01:57.342Z,54.20
2022-08-14T21:04:29.598Z,55.00
2022-08-14T21:10:44.820Z,53.70
2022-08-14T21:16:35.802Z,53.90
2022-08-14T21:34:55.256Z,56.60
2022-08-14T21:37:29.836Z,57.00
2022-08-14T21:40:02.417Z,57.10
2022-08-14T21:45:31.299Z,57.40
2022-08-14T21:48:11.159Z,57.80
2022-08-14T21:51:01.454Z,58.70
2022-08-14T21:53:37.156Z,58.60
2022-08-14T21:56:38.469Z,59.20
2022-08-14T21:59:18.061Z,59.90
2022-08-14T22:02:00.329Z,59.70
2022-08-14T22:04:40.584Z,59.60
2022-08-14T22:07:12.121Z,59.30
2022-08-14T22:09:43.227Z,59.00
2022-08-14T22:12:58.025Z,58.80
2022-08-14T22:15:08.796Z,58.50
2022-08-14T22:17:37.710Z,58.00
2022-08-14T22:20:16.698Z,56.90
2022-08-14T22:22:45.276Z,57.40
2022-08-14T22:25:17.337Z,57.10
2022-08-14T22:27:55.901Z,57.40
2022-08-14T22:30:29.207Z,57.50
2022-08-14T22:33:00.145Z,56.60
2022-08-14T22:35:34.305Z,56.50
2022-08-14T22:41:09.643Z,56.50
2022-08-14T22:43:44.002Z,56.60
2022-08-14T22:46:20.049Z,57.30
2022-08-14T22:48:51.151Z,56.50
2022-08-14T22:51:21.735Z,56.40
2022-08-14T22:53:53.200Z,56.60
2022-08-14T22:56:29.207Z,57.00
2022-08-14T22:59:20.525Z,57.10
2022-08-14T23:02:11.961Z,56.00
2022-08-14T23:04:54.556Z,55.20
2022-08-14T23:07:24.807Z,54.80
2022-08-14T23:09:56.241Z,54.40
2022-08-14T23:12:29.253Z,54.30
2022-08-14T23:17:39.607Z,53.60
2022-08-14T23:20:18.981Z,55.80
2022-08-14T23:22:51.213Z,54.10
2022-08-14T23:25:57.558Z,53.60
2022-08-14T23:28:34.041Z,54.10
2022-08-14T23:31:08.175Z,53.90
2022-08-14T23:33:59.271Z,53.00
2022-08-14T23:36:32.586Z,53.00
2022-08-14T23:39:10.217Z,53.40
2022-08-14T23:41:47.057Z,53.50
2022-08-14T23:44:24.294Z,53.50
2022-08-14T23:47:00.540Z,53.40
2022-08-14T23:49:59.825Z,52.90
2022-08-14T23:53:07.419Z,52.90
2022-08-14T23:55:11.560Z,53.50
2022-08-14T23:57:43.903Z,53.00
